sensor_id;sensor_type;location;lat;lon;timestamp;P1;durP1;ratioP1;P2;durP2;ratioP2
19312;SDS011;9791;50.820;4.406;2022-10-16T00:01:27;7.05;;;2.70;;
19312;SDS011;9791;50.820;4.406;2022-10-16T00:03:54;6.75;;;2.80;;
19312;SDS011;9791;50.820;4.406;2022-10-16T00:06:21;4.15;;;2.10;;
19312;SDS011;9791;50.820;4.406;2022-10-16T00:08:47;4.57;;;1.42;;
19312;SDS011;9791;50.820;4.406;2022-10-16T00:11:15;2.53;;;1.20;;
19312;SDS011;9791;50.820;4.406;2022-10-16T00:13:41;3.70;;;1.27;;
19312;SDS011;9791;50.820;4.406;2022-10-16T00:16:08;2.65;;;1.13;;
19312;SDS011;9791;50.820;4.406;2022-10-16T00:18:34;2.35;;;0.90;;
19312;SDS011;9791;50.820;4.406;2022-10-16T00:21:06;2.47;;;0.95;;
19312;SDS011;9791;50.820;4.406;2022-10-16T00:23:33;2.78;;;0.90;;
19312;SDS011;9791;50.820;4.406;2022-10-16T00:26:00;3.97;;;1.20;;
19312;SDS011;9791;50.820;4.406;2022-10-16T00:28:26;5.78;;;1.27;;
19312;SDS011;9791;50.820;4.406;2022-10-16T00:30:53;3.35;;;1.23;;
19312;SDS011;9791;50.820;4.406;2022-10-16T00:33:19;3.78;;;1.20;;
19312;SDS011;9791;50.820;4.406;2022-10-16T00:35:45;4.55;;;0.90;;
19312;SDS011;9791;50.820;4.406;2022-10-16T00:38:11;2.50;;;1.00;;
19312;SDS011;9791;50.820;4.406;2022-10-16T00:40:37;2.38;;;1.10;;
19312;SDS011;9791;50.820;4.406;2022-10-16T00:43:08;5.00;;;1.27;;
19312;SDS011;9791;50.820;4.406;2022-10-16T00:45:35;2.85;;;1.27;;
19312;SDS011;9791;50.820;4.406;2022-10-16T00:48:01;3.90;;;1.13;;
19312;SDS011;9791;50.820;4.406;2022-10-16T00:50:28;3.70;;;1.00;;
19312;SDS011;9791;50.820;4.406;2022-10-16T00:52:54;5.00;;;1.25;;
19312;SDS011;9791;50.820;4.406;2022-10-16T00:55:21;3.10;;;1.20;;
19312;SDS011;9791;50.820;4.406;2022-10-16T00:57:50;3.25;;;1.00;;
19312;SDS011;9791;50.820;4.406;2022-10-16T01:00:21;4.13;;;1.20;;
19312;SDS011;9791;50.820;4.406;2022-10-16T01:02:54;5.80;;;1.40;;
19312;SDS011;9791;50.820;4.406;2022-10-16T01:05:21;2.88;;;1.10;;
19312;SDS011;9791;50.820;4.406;2022-10-16T01:07:59;3.55;;;1.08;;
19312;SDS011;9791;50.820;4.406;2022-10-16T01:12:59;3.35;;;1.70;;
19312;SDS011;9791;50.820;4.406;2022-10-16T01:15:30;3.33;;;1.05;;
19312;SDS011;9791;50.820;4.406;2022-10-16T01:28:53;3.42;;;1.10;;
19312;SDS011;9791;50.820;4.406;2022-10-16T01:31:22;2.65;;;1.05;;
19312;SDS011;9791;50.820;4.406;2022-10-16T01:33:56;2.25;;;1.15;;
19312;SDS011;9791;50.820;4.406;2022-10-16T01:36:24;2.15;;;0.98;;
19312;SDS011;9791;50.820;4.406;2022-10-16T01:38:51;2.25;;;1.00;;
19312;SDS011;9791;50.820;4.406;2022-10-16T01:41:20;6.40;;;1.38;;
19312;SDS011;9791;50.820;4.406;2022-10-16T01:43:58;4.82;;;1.38;;
19312;SDS011;9791;50.820;4.406;2022-10-16T01:46:27;3.65;;;1.33;;
19312;SDS011;9791;50.820;4.406;2022-10-16T01:48:54;2.83;;;1.20;;
19312;SDS011;9791;50.820;4.406;2022-10-16T01:51:20;2.63;;;1.27;;
19312;SDS011;9791;50.820;4.406;2022-10-16T01:53:48;3.70;;;1.20;;
19312;SDS011;9791;50.820;4.406;2022-10-16T01:56:15;2.58;;;1.20;;
19312;SDS011;9791;50.820;4.406;2022-10-16T01:58:47;3.50;;;1.20;;
19312;SDS011;9791;50.820;4.406;2022-10-16T02:01:15;2.25;;;1.20;;
19312;SDS011;9791;50.820;4.406;2022-10-16T02:03:42;4.75;;;1.30;;
19312;SDS011;9791;50.820;4.406;2022-10-16T02:06:09;3.38;;;1.42;;
19312;SDS011;9791;50.820;4.406;2022-10-16T02:08:35;4.40;;;1.55;;
19312;SDS011;9791;50.820;4.406;2022-10-16T02:11:01;4.38;;;1.02;;
19312;SDS011;9791;50.820;4.406;2022-10-16T02:13:32;3.58;;;1.38;;
19312;SDS011;9791;50.820;4.406;2022-10-16T02:15:59;10.27;;;1.42;;
19312;SDS011;9791;50.820;4.406;2022-10-16T02:18:25;2.30;;;1.10;;
19312;SDS011;9791;50.820;4.406;2022-10-16T02:20:59;5.72;;;1.40;;
19312;SDS011;9791;50.820;4.406;2022-10-16T02:23:36;2.42;;;1.10;;
19312;SDS011;9791;50.820;4.406;2022-10-16T02:26:04;3.30;;;1.40;;
19312;SDS011;9791;50.820;4.406;2022-10-16T02:28:34;3.53;;;1.45;;
19312;SDS011;9791;50.820;4.406;2022-10-16T02:31:03;3.35;;;1.38;;
19312;SDS011;9791;50.820;4.406;2022-10-16T02:33:30;2.85;;;1.20;;
19312;SDS011;9791;50.820;4.406;2022-10-16T02:35:58;3.15;;;1.42;;
19312;SDS011;9791;50.820;4.406;2022-10-16T02:38:24;4.40;;;1.70;;
19312;SDS011;9791;50.820;4.406;2022-10-16T02:40:51;3.20;;;1.40;;
19312;SDS011;9791;50.820;4.406;2022-10-16T02:43:17;2.72;;;1.38;;
19312;SDS011;9791;50.820;4.406;2022-10-16T02:45:43;3.22;;;1.35;;
19312;SDS011;9791;50.820;4.406;2022-10-16T02:48:09;4.82;;;1.50;;
19312;SDS011;9791;50.820;4.406;2022-10-16T02:50:35;5.82;;;1.50;;
19312;SDS011;9791;50.820;4.406;2022-10-16T02:53:01;4.93;;;1.40;;
19312;SDS011;9791;50.820;4.406;2022-10-16T02:55:27;6.82;;;1.80;;
19312;SDS011;9791;50.820;4.406;2022-10-16T02:57:53;4.18;;;1.67;;
19312;SDS011;9791;50.820;4.406;2022-10-16T03:00:19;5.10;;;1.58;;
19312;SDS011;9791;50.820;4.406;2022-10-16T03:02:45;3.80;;;1.27;;
19312;SDS011;9791;50.820;4.406;2022-10-16T03:05:12;4.80;;;1.50;;
19312;SDS011;9791;50.820;4.406;2022-10-16T03:07:38;3.38;;;1.50;;
19312;SDS011;9791;50.820;4.406;2022-10-16T03:10:04;4.60;;;1.50;;
19312;SDS011;9791;50.820;4.406;2022-10-16T03:12:30;5.13;;;1.50;;
19312;SDS011;9791;50.820;4.406;2022-10-16T03:14:56;3.63;;;1.55;;
19312;SDS011;9791;50.820;4.406;2022-10-16T03:17:23;5.45;;;1.60;;
19312;SDS011;9791;50.820;4.406;2022-10-16T03:19:49;3.97;;;1.77;;
19312;SDS011;9791;50.820;4.406;2022-10-16T03:22:15;4.13;;;1.67;;
19312;SDS011;9791;50.820;4.406;2022-10-16T03:24:41;4.00;;;1.35;;
19312;SDS011;9791;50.820;4.406;2022-10-16T03:27:07;3.45;;;1.50;;
19312;SDS011;9791;50.820;4.406;2022-10-16T03:29:33;5.47;;;1.50;;
19312;SDS011;9791;50.820;4.406;2022-10-16T03:31:59;4.80;;;1.60;;
19312;SDS011;9791;50.820;4.406;2022-10-16T03:34:25;3.20;;;1.60;;
19312;SDS011;9791;50.820;4.406;2022-10-16T03:36:51;4.82;;;1.50;;
19312;SDS011;9791;50.820;4.406;2022-10-16T03:39:17;3.42;;;1.50;;
19312;SDS011;9791;50.820;4.406;2022-10-16T03:41:44;10.30;;;3.58;;
19312;SDS011;9791;50.820;4.406;2022-10-16T03:44:11;6.40;;;1.70;;
19312;SDS011;9791;50.820;4.406;2022-10-16T03:46:37;6.28;;;1.50;;
19312;SDS011;9791;50.820;4.406;2022-10-16T03:49:03;5.75;;;1.80;;
19312;SDS011;9791;50.820;4.406;2022-10-16T03:51:29;4.93;;;1.65;;
19312;SDS011;9791;50.820;4.406;2022-10-16T03:53:55;4.00;;;1.48;;
19312;SDS011;9791;50.820;4.406;2022-10-16T03:56:21;2.75;;;1.17;;
19312;SDS011;9791;50.820;4.406;2022-10-16T03:58:47;5.63;;;2.10;;
19312;SDS011;9791;50.820;4.406;2022-10-16T04:01:13;6.85;;;1.83;;
19312;SDS011;9791;50.820;4.406;2022-10-16T04:03:39;5.10;;;1.50;;
19312;SDS011;9791;50.820;4.406;2022-10-16T04:06:05;3.42;;;1.70;;
19312;SDS011;9791;50.820;4.406;2022-10-16T04:08:31;6.90;;;1.70;;
19312;SDS011;9791;50.820;4.406;2022-10-16T04:10:59;3.13;;;1.30;;
19312;SDS011;9791;50.820;4.406;2022-10-16T04:13:26;4.25;;;1.40;;
19312;SDS011;9791;50.820;4.406;2022-10-16T04:15:52;5.18;;;1.70;;
19312;SDS011;9791;50.820;4.406;2022-10-16T04:18:18;3.53;;;1.33;;
19312;SDS011;9791;50.820;4.406;2022-10-16T04:20:44;4.28;;;1.58;;
19312;SDS011;9791;50.820;4.406;2022-10-16T04:23:10;4.00;;;1.50;;
19312;SDS011;9791;50.820;4.406;2022-10-16T04:25:36;3.97;;;1.60;;
19312;SDS011;9791;50.820;4.406;2022-10-16T04:28:02;4.32;;;1.60;;
19312;SDS011;9791;50.820;4.406;2022-10-16T04:30:28;6.05;;;1.60;;
19312;SDS011;9791;50.820;4.406;2022-10-16T04:32:54;6.35;;;1.88;;
19312;SDS011;9791;50.820;4.406;2022-10-16T04:35:21;4.03;;;1.65;;
19312;SDS011;9791;50.820;4.406;2022-10-16T04:37:47;3.55;;;1.40;;
19312;SDS011;9791;50.820;4.406;2022-10-16T04:40:13;3.75;;;1.67;;
19312;SDS011;9791;50.820;4.406;2022-10-16T04:42:39;5.95;;;1.50;;
19312;SDS011;9791;50.820;4.406;2022-10-16T04:45:05;9.35;;;2.13;;
19312;SDS011;9791;50.820;4.406;2022-10-16T04:47:32;4.10;;;1.63;;
19312;SDS011;9791;50.820;4.406;2022-10-16T04:49:58;6.50;;;1.73;;
19312;SDS011;9791;50.820;4.406;2022-10-16T04:52:27;3.47;;;1.55;;
19312;SDS011;9791;50.820;4.406;2022-10-16T04:54:53;3.60;;;1.70;;
19312;SDS011;9791;50.820;4.406;2022-10-16T04:57:21;4.07;;;1.75;;
19312;SDS011;9791;50.820;4.406;2022-10-16T04:59:47;8.32;;;2.03;;
19312;SDS011;9791;50.820;4.406;2022-10-16T05:02:13;7.53;;;1.85;;
19312;SDS011;9791;50.820;4.406;2022-10-16T05:04:39;5.93;;;1.63;;
19312;SDS011;9791;50.820;4.406;2022-10-16T05:07:05;3.67;;;1.55;;
19312;SDS011;9791;50.820;4.406;2022-10-16T05:09:31;5.75;;;1.65;;
19312;SDS011;9791;50.820;4.406;2022-10-16T05:11:57;8.05;;;1.65;;
19312;SDS011;9791;50.820;4.406;2022-10-16T05:14:23;5.65;;;2.00;;
19312;SDS011;9791;50.820;4.406;2022-10-16T05:16:49;3.67;;;1.45;;
19312;SDS011;9791;50.820;4.406;2022-10-16T05:19:15;3.88;;;1.95;;
19312;SDS011;9791;50.820;4.406;2022-10-16T05:21:41;3.38;;;1.70;;
19312;SDS011;9791;50.820;4.406;2022-10-16T05:24:07;5.55;;;1.52;;
19312;SDS011;9791;50.820;4.406;2022-10-16T05:26:34;6.07;;;1.83;;
19312;SDS011;9791;50.820;4.406;2022-10-16T05:29:00;8.43;;;1.90;;
19312;SDS011;9791;50.820;4.406;2022-10-16T05:31:26;6.22;;;2.10;;
19312;SDS011;9791;50.820;4.406;2022-10-16T05:33:52;5.93;;;1.92;;
19312;SDS011;9791;50.820;4.406;2022-10-16T05:36:18;4.68;;;2.00;;
19312;SDS011;9791;50.820;4.406;2022-10-16T05:38:44;4.88;;;1.73;;
19312;SDS011;9791;50.820;4.406;2022-10-16T05:41:10;10.38;;;2.30;;
19312;SDS011;9791;50.820;4.406;2022-10-16T05:43:36;5.90;;;2.08;;
19312;SDS011;9791;50.820;4.406;2022-10-16T05:46:03;4.93;;;1.80;;
19312;SDS011;9791;50.820;4.406;2022-10-16T05:48:29;5.18;;;2.05;;
19312;SDS011;9791;50.820;4.406;2022-10-16T05:50:59;5.15;;;1.83;;
19312;SDS011;9791;50.820;4.406;2022-10-16T05:53:26;4.07;;;1.70;;
19312;SDS011;9791;50.820;4.406;2022-10-16T05:55:53;4.30;;;1.92;;
19312;SDS011;9791;50.820;4.406;2022-10-16T05:58:19;4.03;;;2.00;;
19312;SDS011;9791;50.820;4.406;2022-10-16T06:00:52;5.80;;;2.13;;
19312;SDS011;9791;50.820;4.406;2022-10-16T06:03:18;8.50;;;1.88;;
19312;SDS011;9791;50.820;4.406;2022-10-16T06:05:43;5.82;;;2.20;;
19312;SDS011;9791;50.820;4.406;2022-10-16T06:08:10;5.60;;;2.35;;
19312;SDS011;9791;50.820;4.406;2022-10-16T06:10:36;7.88;;;2.33;;
19312;SDS011;9791;50.820;4.406;2022-10-16T06:13:01;6.40;;;2.85;;
19312;SDS011;9791;50.820;4.406;2022-10-16T06:15:27;4.53;;;1.85;;
19312;SDS011;9791;50.820;4.406;2022-10-16T06:17:55;4.03;;;2.00;;
19312;SDS011;9791;50.820;4.406;2022-10-16T06:20:21;5.38;;;1.98;;
19312;SDS011;9791;50.820;4.406;2022-10-16T06:22:47;6.75;;;2.08;;
19312;SDS011;9791;50.820;4.406;2022-10-16T06:25:13;5.40;;;1.75;;
19312;SDS011;9791;50.820;4.406;2022-10-16T06:27:39;4.30;;;2.00;;
19312;SDS011;9791;50.820;4.406;2022-10-16T06:30:06;4.90;;;2.03;;
19312;SDS011;9791;50.820;4.406;2022-10-16T06:32:32;5.75;;;2.28;;
19312;SDS011;9791;50.820;4.406;2022-10-16T06:34:58;7.35;;;2.00;;
19312;SDS011;9791;50.820;4.406;2022-10-16T06:37:24;4.53;;;1.92;;
19312;SDS011;9791;50.820;4.406;2022-10-16T06:39:50;6.90;;;2.13;;
19312;SDS011;9791;50.820;4.406;2022-10-16T06:42:19;9.52;;;2.17;;
19312;SDS011;9791;50.820;4.406;2022-10-16T06:44:45;5.47;;;1.98;;
19312;SDS011;9791;50.820;4.406;2022-10-16T06:47:11;4.53;;;1.95;;
19312;SDS011;9791;50.820;4.406;2022-10-16T06:49:37;5.57;;;1.83;;
19312;SDS011;9791;50.820;4.406;2022-10-16T06:52:03;4.22;;;1.52;;
19312;SDS011;9791;50.820;4.406;2022-10-16T06:54:29;3.70;;;1.33;;
19312;SDS011;9791;50.820;4.406;2022-10-16T06:56:55;2.97;;;1.30;;
19312;SDS011;9791;50.820;4.406;2022-10-16T06:59:22;4.20;;;1.20;;
19312;SDS011;9791;50.820;4.406;2022-10-16T07:01:47;4.38;;;1.15;;
19312;SDS011;9791;50.820;4.406;2022-10-16T07:04:13;3.42;;;1.20;;
19312;SDS011;9791;50.820;4.406;2022-10-16T07:06:40;3.45;;;1.00;;
19312;SDS011;9791;50.820;4.406;2022-10-16T07:09:06;4.68;;;1.10;;
19312;SDS011;9791;50.820;4.406;2022-10-16T07:11:33;4.82;;;1.08;;
19312;SDS011;9791;50.820;4.406;2022-10-16T07:13:59;2.50;;;1.00;;
19312;SDS011;9791;50.820;4.406;2022-10-16T07:16:26;4.72;;;1.20;;
19312;SDS011;9791;50.820;4.406;2022-10-16T07:18:56;3.60;;;1.13;;
19312;SDS011;9791;50.820;4.406;2022-10-16T07:21:23;2.55;;;1.10;;
19312;SDS011;9791;50.820;4.406;2022-10-16T07:23:54;2.92;;;1.00;;
19312;SDS011;9791;50.820;4.406;2022-10-16T07:26:20;4.40;;;1.13;;
19312;SDS011;9791;50.820;4.406;2022-10-16T07:28:47;4.82;;;1.33;;
19312;SDS011;9791;50.820;4.406;2022-10-16T07:31:13;3.05;;;0.90;;
19312;SDS011;9791;50.820;4.406;2022-10-16T07:33:40;5.43;;;1.25;;
19312;SDS011;9791;50.820;4.406;2022-10-16T07:36:08;4.85;;;1.25;;
19312;SDS011;9791;50.820;4.406;2022-10-16T07:38:34;3.17;;;1.20;;
19312;SDS011;9791;50.820;4.406;2022-10-16T07:41:01;3.35;;;0.93;;
19312;SDS011;9791;50.820;4.406;2022-10-16T07:43:28;2.92;;;1.10;;
19312;SDS011;9791;50.820;4.406;2022-10-16T07:45:54;4.45;;;1.23;;
19312;SDS011;9791;50.820;4.406;2022-10-16T07:48:20;4.75;;;1.38;;
19312;SDS011;9791;50.820;4.406;2022-10-16T07:50:47;2.42;;;1.00;;
19312;SDS011;9791;50.820;4.406;2022-10-16T07:53:13;5.07;;;1.20;;
19312;SDS011;9791;50.820;4.406;2022-10-16T07:55:39;2.92;;;0.90;;
19312;SDS011;9791;50.820;4.406;2022-10-16T07:58:06;3.65;;;0.90;;
19312;SDS011;9791;50.820;4.406;2022-10-16T08:00:32;3.60;;;1.17;;
19312;SDS011;9791;50.820;4.406;2022-10-16T08:02:59;3.97;;;1.10;;
19312;SDS011;9791;50.820;4.406;2022-10-16T08:05:28;5.15;;;1.23;;
19312;SDS011;9791;50.820;4.406;2022-10-16T08:07:55;7.53;;;1.67;;
19312;SDS011;9791;50.820;4.406;2022-10-16T08:10:22;3.60;;;1.10;;
19312;SDS011;9791;50.820;4.406;2022-10-16T08:12:48;3.45;;;1.10;;
19312;SDS011;9791;50.820;4.406;2022-10-16T08:15:14;3.45;;;1.20;;
19312;SDS011;9791;50.820;4.406;2022-10-16T08:17:40;4.28;;;1.23;;
19312;SDS011;9791;50.820;4.406;2022-10-16T08:20:06;4.07;;;1.17;;
19312;SDS011;9791;50.820;4.406;2022-10-16T08:22:33;8.10;;;1.40;;
19312;SDS011;9791;50.820;4.406;2022-10-16T08:24:59;4.20;;;0.80;;
19312;SDS011;9791;50.820;4.406;2022-10-16T08:27:24;7.43;;;1.30;;
19312;SDS011;9791;50.820;4.406;2022-10-16T08:29:51;3.80;;;1.08;;
19312;SDS011;9791;50.820;4.406;2022-10-16T08:32:17;4.53;;;1.15;;
19312;SDS011;9791;50.820;4.406;2022-10-16T08:34:43;3.70;;;1.23;;
19312;SDS011;9791;50.820;4.406;2022-10-16T08:37:09;3.67;;;1.00;;
19312;SDS011;9791;50.820;4.406;2022-10-16T08:39:37;3.22;;;0.93;;
19312;SDS011;9791;50.820;4.406;2022-10-16T08:47:17;7.00;;;1.33;;
19312;SDS011;9791;50.820;4.406;2022-10-16T08:49:50;3.22;;;0.93;;
19312;SDS011;9791;50.820;4.406;2022-10-16T08:52:21;3.78;;;1.40;;
19312;SDS011;9791;50.820;4.406;2022-10-16T08:54:48;5.18;;;1.10;;
19312;SDS011;9791;50.820;4.406;2022-10-16T08:57:17;4.00;;;1.00;;
19312;SDS011;9791;50.820;4.406;2022-10-16T08:59:45;5.10;;;1.05;;
19312;SDS011;9791;50.820;4.406;2022-10-16T09:04:54;4.53;;;1.15;;
19312;SDS011;9791;50.820;4.406;2022-10-16T09:25:49;5.60;;;1.00;;
19312;SDS011;9791;50.820;4.406;2022-10-16T09:28:16;3.80;;;1.10;;
19312;SDS011;9791;50.820;4.406;2022-10-16T09:30:42;4.72;;;1.10;;
19312;SDS011;9791;50.820;4.406;2022-10-16T09:33:09;3.85;;;1.00;;
19312;SDS011;9791;50.820;4.406;2022-10-16T09:38:01;4.78;;;1.23;;
19312;SDS011;9791;50.820;4.406;2022-10-16T09:40:28;4.53;;;1.13;;
19312;SDS011;9791;50.820;4.406;2022-10-16T09:43:13;4.65;;;1.00;;
19312;SDS011;9791;50.820;4.406;2022-10-16T09:45:52;4.68;;;0.95;;
19312;SDS011;9791;50.820;4.406;2022-10-16T09:48:19;3.45;;;1.00;;
19312;SDS011;9791;50.820;4.406;2022-10-16T09:50:55;3.85;;;1.20;;
19312;SDS011;9791;50.820;4.406;2022-10-16T09:53:21;3.67;;;1.17;;
19312;SDS011;9791;50.820;4.406;2022-10-16T09:55:51;4.43;;;0.95;;
19312;SDS011;9791;50.820;4.406;2022-10-16T09:58:17;5.75;;;0.80;;
19312;SDS011;9791;50.820;4.406;2022-10-16T10:00:49;3.80;;;1.08;;
19312;SDS011;9791;50.820;4.406;2022-10-16T10:03:30;3.53;;;0.90;;
19312;SDS011;9791;50.820;4.406;2022-10-16T10:05:59;4.85;;;1.02;;
19312;SDS011;9791;50.820;4.406;2022-10-16T10:08:25;2.78;;;0.80;;
19312;SDS011;9791;50.820;4.406;2022-10-16T10:10:51;3.40;;;1.00;;
19312;SDS011;9791;50.820;4.406;2022-10-16T10:13:20;3.38;;;1.05;;
19312;SDS011;9791;50.820;4.406;2022-10-16T10:15:46;4.13;;;1.05;;
19312;SDS011;9791;50.820;4.406;2022-10-16T10:18:19;3.03;;;0.90;;
19312;SDS011;9791;50.820;4.406;2022-10-16T10:20:56;6.50;;;1.13;;
19312;SDS011;9791;50.820;4.406;2022-10-16T10:23:23;5.13;;;0.95;;
19312;SDS011;9791;50.820;4.406;2022-10-16T10:33:24;3.55;;;1.00;;
19312;SDS011;9791;50.820;4.406;2022-10-16T10:38:51;4.85;;;1.05;;
19312;SDS011;9791;50.820;4.406;2022-10-16T10:41:40;2.47;;;0.85;;
19312;SDS011;9791;50.820;4.406;2022-10-16T10:46:48;4.22;;;1.38;;
19312;SDS011;9791;50.820;4.406;2022-10-16T10:49:26;5.47;;;1.10;;
19312;SDS011;9791;50.820;4.406;2022-10-16T10:57:03;4.82;;;1.38;;
19312;SDS011;9791;50.820;4.406;2022-10-16T11:02:19;3.55;;;0.90;;
19312;SDS011;9791;50.820;4.406;2022-10-16T11:07:40;3.90;;;1.10;;
19312;SDS011;9791;50.820;4.406;2022-10-16T11:10:12;4.13;;;0.88;;
19312;SDS011;9791;50.820;4.406;2022-10-16T11:12:41;1.95;;;0.70;;
19312;SDS011;9791;50.820;4.406;2022-10-16T11:15:18;5.57;;;0.88;;
19312;SDS011;9791;50.820;4.406;2022-10-16T11:20:28;3.03;;;0.70;;
19312;SDS011;9791;50.820;4.406;2022-10-16T11:22:56;4.63;;;1.02;;
19312;SDS011;9791;50.820;4.406;2022-10-16T11:25:30;3.58;;;1.05;;
19312;SDS011;9791;50.820;4.406;2022-10-16T11:30:24;2.53;;;0.70;;
19312;SDS011;9791;50.820;4.406;2022-10-16T11:32:53;4.28;;;1.20;;
19312;SDS011;9791;50.820;4.406;2022-10-16T11:35:22;3.83;;;1.00;;
19312;SDS011;9791;50.820;4.406;2022-10-16T11:37:50;2.05;;;0.98;;
19312;SDS011;9791;50.820;4.406;2022-10-16T11:40:31;3.60;;;0.93;;
19312;SDS011;9791;50.820;4.406;2022-10-16T11:45:43;3.28;;;0.98;;
19312;SDS011;9791;50.820;4.406;2022-10-16T11:53:22;3.42;;;0.90;;
19312;SDS011;9791;50.820;4.406;2022-10-16T11:55:49;4.15;;;1.00;;
19312;SDS011;9791;50.820;4.406;2022-10-16T12:00:53;4.53;;;0.88;;
19312;SDS011;9791;50.820;4.406;2022-10-16T12:03:24;3.47;;;0.82;;
19312;SDS011;9791;50.820;4.406;2022-10-16T12:05:55;3.17;;;1.08;;
19312;SDS011;9791;50.820;4.406;2022-10-16T12:08:24;3.95;;;0.80;;
19312;SDS011;9791;50.820;4.406;2022-10-16T12:10:50;4.47;;;0.95;;
19312;SDS011;9791;50.820;4.406;2022-10-16T12:13:31;2.10;;;0.80;;
19312;SDS011;9791;50.820;4.406;2022-10-16T12:16:30;4.85;;;1.00;;
19312;SDS011;9791;50.820;4.406;2022-10-16T12:18:50;2.92;;;0.60;;
19312;SDS011;9791;50.820;4.406;2022-10-16T12:21:30;5.72;;;1.00;;
19312;SDS011;9791;50.820;4.406;2022-10-16T12:23:56;2.63;;;0.60;;
19312;SDS011;9791;50.820;4.406;2022-10-16T12:26:27;3.45;;;0.70;;
19312;SDS011;9791;50.820;4.406;2022-10-16T12:28:54;4.85;;;1.50;;
19312;SDS011;9791;50.820;4.406;2022-10-16T12:31:20;2.38;;;0.80;;
19312;SDS011;9791;50.820;4.406;2022-10-16T12:34:14;3.05;;;0.57;;
19312;SDS011;9791;50.820;4.406;2022-10-16T12:36:37;3.28;;;0.80;;
19312;SDS011;9791;50.820;4.406;2022-10-16T12:39:03;5.90;;;0.98;;
19312;SDS011;9791;50.820;4.406;2022-10-16T12:41:33;3.58;;;0.90;;
19312;SDS011;9791;50.820;4.406;2022-10-16T12:44:00;3.47;;;0.80;;
19312;SDS011;9791;50.820;4.406;2022-10-16T12:51:53;4.50;;;1.02;;
19312;SDS011;9791;50.820;4.406;2022-10-16T12:54:21;3.53;;;0.75;;
19312;SDS011;9791;50.820;4.406;2022-10-16T12:56:51;3.38;;;0.85;;
19312;SDS011;9791;50.820;4.406;2022-10-16T12:59:31;2.17;;;0.70;;
19312;SDS011;9791;50.820;4.406;2022-10-16T13:04:46;4.38;;;0.90;;
19312;SDS011;9791;50.820;4.406;2022-10-16T13:07:27;4.80;;;1.15;;
19312;SDS011;9791;50.820;4.406;2022-10-16T13:10:02;4.65;;;0.82;;
19312;SDS011;9791;50.820;4.406;2022-10-16T13:15:19;3.08;;;1.20;;
19312;SDS011;9791;50.820;4.406;2022-10-16T13:17:50;2.25;;;1.02;;
19312;SDS011;9791;50.820;4.406;2022-10-16T13:23:15;6.22;;;1.42;;
19312;SDS011;9791;50.820;4.406;2022-10-16T13:28:18;3.80;;;1.10;;
19312;SDS011;9791;50.820;4.406;2022-10-16T13:30:54;4.57;;;1.65;;
19312;SDS011;9791;50.820;4.406;2022-10-16T13:35:55;5.05;;;1.13;;
19312;SDS011;9791;50.820;4.406;2022-10-16T13:38:22;2.45;;;0.90;;
19312;SDS011;9791;50.820;4.406;2022-10-16T13:40:55;4.22;;;1.00;;
19312;SDS011;9791;50.820;4.406;2022-10-16T13:43:26;2.88;;;0.80;;
19312;SDS011;9791;50.820;4.406;2022-10-16T13:46:12;3.80;;;1.38;;
19312;SDS011;9791;50.820;4.406;2022-10-16T13:48:39;3.30;;;1.00;;
19312;SDS011;9791;50.820;4.406;2022-10-16T13:51:15;3.03;;;1.13;;
19312;SDS011;9791;50.820;4.406;2022-10-16T13:53:42;5.15;;;1.10;;
19312;SDS011;9791;50.820;4.406;2022-10-16T13:56:12;5.13;;;1.30;;
19312;SDS011;9791;50.820;4.406;2022-10-16T13:58:38;2.55;;;0.90;;
19312;SDS011;9791;50.820;4.406;2022-10-16T14:01:05;2.15;;;0.80;;
19312;SDS011;9791;50.820;4.406;2022-10-16T14:03:32;2.25;;;1.00;;
19312;SDS011;9791;50.820;4.406;2022-10-16T14:06:01;3.15;;;0.80;;
19312;SDS011;9791;50.820;4.406;2022-10-16T14:08:28;3.13;;;1.17;;
19312;SDS011;9791;50.820;4.406;2022-10-16T14:10:56;5.93;;;1.20;;
19312;SDS011;9791;50.820;4.406;2022-10-16T14:13:32;4.00;;;1.02;;
19312;SDS011;9791;50.820;4.406;2022-10-16T14:16:00;4.50;;;0.90;;
19312;SDS011;9791;50.820;4.406;2022-10-16T14:18:28;5.40;;;1.33;;
19312;SDS011;9791;50.820;4.406;2022-10-16T14:20:54;4.82;;;0.90;;
19312;SDS011;9791;50.820;4.406;2022-10-16T14:23:39;4.72;;;1.27;;
19312;SDS011;9791;50.820;4.406;2022-10-16T14:28:35;9.48;;;2.00;;
19312;SDS011;9791;50.820;4.406;2022-10-16T14:31:02;5.25;;;1.17;;
19312;SDS011;9791;50.820;4.406;2022-10-16T14:38:30;4.50;;;1.30;;
19312;SDS011;9791;50.820;4.406;2022-10-16T14:40:56;10.07;;;1.42;;
19312;SDS011;9791;50.820;4.406;2022-10-16T14:45:59;4.10;;;1.20;;
19312;SDS011;9791;50.820;4.406;2022-10-16T14:48:25;3.10;;;1.30;;
19312;SDS011;9791;50.820;4.406;2022-10-16T14:50:51;4.38;;;1.42;;
19312;SDS011;9791;50.820;4.406;2022-10-16T14:53:17;4.35;;;1.55;;
19312;SDS011;9791;50.820;4.406;2022-10-16T14:55:43;6.03;;;1.48;;
19312;SDS011;9791;50.820;4.406;2022-10-16T14:58:19;4.80;;;1.40;;
19312;SDS011;9791;50.820;4.406;2022-10-16T15:00:46;5.00;;;1.30;;
19312;SDS011;9791;50.820;4.406;2022-10-16T15:03:12;6.75;;;2.17;;
19312;SDS011;9791;50.820;4.406;2022-10-16T15:05:38;4.78;;;1.30;;
19312;SDS011;9791;50.820;4.406;2022-10-16T15:08:04;10.55;;;2.05;;
19312;SDS011;9791;50.820;4.406;2022-10-16T15:10:31;3.50;;;1.25;;
19312;SDS011;9791;50.820;4.406;2022-10-16T15:12:58;9.48;;;1.83;;
19312;SDS011;9791;50.820;4.406;2022-10-16T15:17:51;3.97;;;1.20;;
19312;SDS011;9791;50.820;4.406;2022-10-16T15:20:18;4.03;;;1.17;;
19312;SDS011;9791;50.820;4.406;2022-10-16T15:22:44;5.88;;;1.58;;
19312;SDS011;9791;50.820;4.406;2022-10-16T15:25:19;5.25;;;1.80;;
19312;SDS011;9791;50.820;4.406;2022-10-16T15:27:51;7.75;;;1.75;;
19312;SDS011;9791;50.820;4.406;2022-10-16T15:30:17;4.57;;;1.40;;
19312;SDS011;9791;50.820;4.406;2022-10-16T15:32:43;6.65;;;1.48;;
19312;SDS011;9791;50.820;4.406;2022-10-16T15:35:09;4.53;;;1.55;;
19312;SDS011;9791;50.820;4.406;2022-10-16T15:37:35;6.88;;;1.60;;
19312;SDS011;9791;50.820;4.406;2022-10-16T15:40:01;6.85;;;1.55;;
19312;SDS011;9791;50.820;4.406;2022-10-16T15:42:27;6.55;;;1.52;;
19312;SDS011;9791;50.820;4.406;2022-10-16T15:44:53;4.18;;;1.50;;
19312;SDS011;9791;50.820;4.406;2022-10-16T15:47:19;4.43;;;1.30;;
19312;SDS011;9791;50.820;4.406;2022-10-16T15:49:45;4.78;;;1.70;;
19312;SDS011;9791;50.820;4.406;2022-10-16T15:52:11;6.28;;;1.77;;
19312;SDS011;9791;50.820;4.406;2022-10-16T15:54:37;5.38;;;1.60;;
19312;SDS011;9791;50.820;4.406;2022-10-16T15:57:03;9.95;;;2.20;;
19312;SDS011;9791;50.820;4.406;2022-10-16T15:59:29;4.40;;;1.60;;
19312;SDS011;9791;50.820;4.406;2022-10-16T16:01:55;3.70;;;1.70;;
19312;SDS011;9791;50.820;4.406;2022-10-16T16:04:21;6.55;;;2.10;;
19312;SDS011;9791;50.820;4.406;2022-10-16T16:06:48;5.93;;;2.47;;
19312;SDS011;9791;50.820;4.406;2022-10-16T16:09:14;7.07;;;2.45;;
19312;SDS011;9791;50.820;4.406;2022-10-16T16:11:40;6.82;;;3.17;;
19312;SDS011;9791;50.820;4.406;2022-10-16T16:14:06;5.55;;;2.35;;
19312;SDS011;9791;50.820;4.406;2022-10-16T16:16:33;7.97;;;3.25;;
19312;SDS011;9791;50.820;4.406;2022-10-16T16:19:02;9.43;;;2.60;;
19312;SDS011;9791;50.820;4.406;2022-10-16T16:21:29;7.13;;;2.50;;
19312;SDS011;9791;50.820;4.406;2022-10-16T16:23:55;6.90;;;3.30;;
19312;SDS011;9791;50.820;4.406;2022-10-16T16:26:23;8.23;;;4.65;;
19312;SDS011;9791;50.820;4.406;2022-10-16T16:28:53;11.40;;;5.10;;
19312;SDS011;9791;50.820;4.406;2022-10-16T16:31:23;12.82;;;6.05;;
19312;SDS011;9791;50.820;4.406;2022-10-16T16:33:49;19.73;;;11.43;;
19312;SDS011;9791;50.820;4.406;2022-10-16T16:36:16;17.52;;;8.63;;
19312;SDS011;9791;50.820;4.406;2022-10-16T16:38:45;7.82;;;4.32;;
19312;SDS011;9791;50.820;4.406;2022-10-16T16:43:38;6.07;;;2.40;;
19312;SDS011;9791;50.820;4.406;2022-10-16T16:46:04;8.50;;;2.60;;
19312;SDS011;9791;50.820;4.406;2022-10-16T16:48:31;9.55;;;3.15;;
19312;SDS011;9791;50.820;4.406;2022-10-16T16:51:02;7.70;;;3.03;;
19312;SDS011;9791;50.820;4.406;2022-10-16T16:53:28;9.32;;;3.78;;
19312;SDS011;9791;50.820;4.406;2022-10-16T16:55:54;8.05;;;3.35;;
19312;SDS011;9791;50.820;4.406;2022-10-16T16:58:19;7.03;;;2.92;;
19312;SDS011;9791;50.820;4.406;2022-10-16T17:00:46;9.25;;;3.05;;